createdAt,value
2022-10-11T00:01:44.991Z,99049.47
2022-10-11T00:04:12.368Z,99045.09
2022-10-11T00:06:39.196Z,99053.53
2022-10-11T00:09:06.916Z,99047.50
2022-10-11T00:11:33.665Z,99052.66
2022-10-11T00:14:00.485Z,99053.72
2022-10-11T00:16:27.212Z,99052.09
2022-10-11T00:18:53.984Z,99047.16
2022-10-11T00:21:21.759Z,99037.34
2022-10-11T00:23:49.403Z,99040.28
2022-10-11T00:26:16.627Z,99043.53
2022-10-11T00:28:43.449Z,99043.78
2022-10-11T00:31:16.563Z,99048.66
2022-10-11T00:33:43.312Z,99047.25
2022-10-11T00:36:13.844Z,99042.06
2022-10-11T00:38:40.842Z,99040.94
2022-10-11T00:41:07.594Z,99046.63
2022-10-11T00:43:34.536Z,99054.22
2022-10-11T00:46:13.543Z,99053.91
2022-10-11T00:48:41.826Z,99048.69
2022-10-11T00:51:24.153Z,99057.06
2022-10-11T00:53:52.872Z,99051.88
2022-10-11T00:56:40.031Z,99051.88
2022-10-11T00:59:14.458Z,99047.75
2022-10-11T01:01:41.244Z,99043.88
2022-10-11T01:04:08.023Z,99046.59
2022-10-11T01:06:35.125Z,99046.88
2022-10-11T01:09:01.988Z,99049.53
2022-10-11T01:11:30.966Z,99046.19
2022-10-11T01:14:20.782Z,99053.53
2022-10-11T01:17:13.751Z,99057.34
2022-10-11T01:20:17.729Z,99063.28
2022-10-11T01:23:16.740Z,99066.25
2022-10-11T01:26:07.267Z,99062.13
2022-10-11T01:28:40.425Z,99062.38
2022-10-11T01:31:26.689Z,99058.59
2022-10-11T01:34:08.524Z,99065.34
2022-10-11T01:36:42.730Z,99056.94
2022-10-11T01:39:20.906Z,99061.56
2022-10-11T01:41:51.231Z,99059.91
2022-10-11T01:44:19.293Z,99062.63
2022-10-11T01:46:46.414Z,99056.87
2022-10-11T01:49:13.232Z,99061.50
2022-10-11T01:51:47.120Z,99060.66
2022-10-11T01:55:04.383Z,99061.44
2022-10-11T01:57:47.257Z,99054.09
2022-10-11T02:00:18.325Z,99060.34
2022-10-11T02:03:09.996Z,99061.44
2022-10-11T02:05:51.812Z,99068.16
2022-10-11T02:08:54.499Z,99052.09
2022-10-11T02:11:31.589Z,99068.41
2022-10-11T02:14:17.598Z,99062.66
2022-10-11T02:16:53.514Z,99065.13
2022-10-11T02:19:25.617Z,99068.66
2022-10-11T02:21:58.034Z,99064.88
2022-10-11T02:24:29.954Z,99067.84
2022-10-11T02:26:58.901Z,99072.19
2022-10-11T02:29:29.485Z,99071.13
2022-10-11T02:31:59.533Z,99068.41
2022-10-11T02:34:31.949Z,99074.66
2022-10-11T02:37:22.521Z,99073.59
2022-10-11T02:40:04.162Z,99069.00
2022-10-11T02:42:38.923Z,99072.78
2022-10-11T02:45:24.522Z,99070.06
2022-10-11T02:47:52.076Z,99077.16
2022-10-11T02:50:18.927Z,99073.38
2022-10-11T02:52:45.673Z,99073.59
2022-10-11T02:55:12.410Z,99070.87
2022-10-11T02:57:39.131Z,99074.44
2022-10-11T03:00:07.395Z,99086.97
2022-10-11T03:02:34.160Z,99080.72
2022-10-11T03:05:01.226Z,99087.81
2022-10-11T03:07:27.991Z,99089.44
2022-10-11T03:09:54.732Z,99093.25
2022-10-11T03:12:21.792Z,99098.44
2022-10-11T03:14:48.563Z,99099.00
2022-10-11T03:17:35.018Z,99099.84
2022-10-11T03:20:02.164Z,99099.56
2022-10-11T03:22:28.919Z,99108.31
2022-10-11T03:24:59.678Z,99108.06
2022-10-11T03:27:29.382Z,99113.25
2022-10-11T03:29:56.303Z,99111.59
2022-10-11T03:32:23.049Z,99112.44
2022-10-11T03:34:49.784Z,99115.97
2022-10-11T03:37:16.679Z,99110.28
2022-10-11T03:39:43.526Z,99109.47
2022-10-11T03:42:10.278Z,99114.91
2022-10-11T03:44:37.846Z,99110.03
2022-10-11T03:47:06.027Z,99120.09
2022-10-11T03:49:32.884Z,99121.75
2022-10-11T03:51:59.639Z,99121.75
2022-10-11T03:54:26.524Z,99119.84
2022-10-11T03:56:53.387Z,99123.38
2022-10-11T03:59:20.114Z,99119.84
2022-10-11T04:01:46.967Z,99121.75
2022-10-11T04:04:13.778Z,99125.28
2022-10-11T04:06:40.573Z,99129.66
2022-10-11T04:09:07.294Z,99138.88
2022-10-11T04:11:34.024Z,99141.59
2022-10-11T04:14:00.817Z,99134.53
2022-10-11T04:16:27.691Z,99130.16
2022-10-11T04:18:54.589Z,99135.59
2022-10-11T04:21:21.300Z,99137.25
2022-10-11T04:23:48.060Z,99141.84
2022-10-11T04:26:14.857Z,99139.97
2022-10-11T04:28:41.766Z,99138.31
2022-10-11T04:31:08.500Z,99143.19
2022-10-11T04:33:35.293Z,99140.47
2022-10-11T04:36:02.371Z,99146.97
2022-10-11T04:38:29.489Z,99144.25
2022-10-11T04:40:56.243Z,99149.38
2022-10-11T04:43:22.975Z,99149.63
2022-10-11T04:45:54.637Z,99147.16
2022-10-11T04:48:22.215Z,99143.59
2022-10-11T04:50:48.971Z,99150.13
2022-10-11T04:53:15.744Z,99143.84
2022-10-11T04:55:42.552Z,99150.62
2022-10-11T04:58:09.286Z,99139.94
2022-10-11T05:00:36.043Z,99144.81
2022-10-11T05:03:02.815Z,99144.47
2022-10-11T05:05:29.544Z,99145.81
2022-10-11T05:07:56.276Z,99148.78
2022-10-11T05:10:23.089Z,99143.34
2022-10-11T05:12:49.853Z,99150.09
2022-10-11T05:15:16.752Z,99148.44
2022-10-11T05:17:43.489Z,99148.44
2022-10-11T05:20:10.632Z,99149.75
2022-10-11T05:22:37.372Z,99144.56
2022-10-11T05:25:04.418Z,99151.91
2022-10-11T05:27:31.182Z,99157.09
2022-10-11T05:29:57.948Z,99157.91
2022-10-11T05:32:27.825Z,99165.50
2022-10-11T05:34:54.839Z,99161.13
2022-10-11T05:37:21.629Z,99163.84
2022-10-11T05:39:48.437Z,99172.25
2022-10-11T05:42:15.456Z,99169.53
2022-10-11T05:44:42.231Z,99173.09
2022-10-11T05:47:08.986Z,99181.25
2022-10-11T05:49:35.700Z,99183.38
2022-10-11T05:52:02.476Z,99183.38
2022-10-11T05:54:31.041Z,99180.06
2022-10-11T05:56:57.797Z,99182.78
2022-10-11T05:59:24.577Z,99186.56
2022-10-11T06:01:51.331Z,99184.91
2022-10-11T06:04:19.119Z,99188.69
2022-10-11T06:06:46.079Z,99190.56
2022-10-11T06:09:13.131Z,99194.34
2022-10-11T06:11:41.422Z,99194.34
2022-10-11T06:14:09.596Z,99207.38
2022-10-11T06:16:36.314Z,99211.72
2022-10-11T06:19:04.240Z,99209.84
2022-10-11T06:21:31.319Z,99204.66
2022-10-11T06:24:01.378Z,99211.72
2022-10-11T06:26:29.320Z,99214.44
2022-10-11T06:28:56.499Z,99215.28
2022-10-11T06:31:23.509Z,99218.59
2022-10-11T06:33:50.302Z,99230.31
2022-10-11T06:36:17.915Z,99226.50
2022-10-11T06:38:45.565Z,99229.59
2022-10-11T06:41:17.893Z,99230.75
2022-10-11T06:43:45.235Z,99231.34
2022-10-11T06:46:12.849Z,99230.59
2022-10-11T06:48:44.094Z,99229.03
2022-10-11T06:51:12.040Z,99229.13
2022-10-11T06:53:39.165Z,99234.69
2022-10-11T06:56:08.902Z,99243.75
2022-10-11T06:58:36.909Z,99244.66
2022-10-11T07:01:07.220Z,99246.41
2022-10-11T07:03:34.977Z,99252.78
2022-10-11T07:06:02.962Z,99250.97
2022-10-11T07:08:30.237Z,99255.66
2022-10-11T07:11:02.223Z,99261.19
2022-10-11T07:13:29.113Z,99264.56
2022-10-11T07:15:56.123Z,99267.38
2022-10-11T07:18:23.664Z,99263.91
2022-10-11T07:20:50.478Z,99260.44
2022-10-11T07:23:17.700Z,99256.16
2022-10-11T07:25:45.788Z,99261.91
2022-10-11T07:28:13.923Z,99262.28
2022-10-11T07:30:42.269Z,99269.69
2022-10-11T07:33:09.141Z,99263.75
2022-10-11T07:35:36.675Z,99272.25
2022-10-11T07:38:05.066Z,99267.13
2022-10-11T07:40:32.085Z,99259.25
2022-10-11T07:42:58.970Z,99260.44
2022-10-11T07:45:28.918Z,99269.75
2022-10-11T07:47:56.595Z,99261.06
2022-10-11T07:50:24.511Z,99270.97
2022-10-11T07:52:51.227Z,99266.69
2022-10-11T07:55:17.939Z,99269.72
2022-10-11T07:57:44.676Z,99272.31
2022-10-11T08:00:12.232Z,99277.81
2022-10-11T08:02:38.973Z,99277.63
2022-10-11T08:05:05.907Z,99283.72
2022-10-11T08:07:32.711Z,99281.66
2022-10-11T08:09:59.486Z,99290.44
2022-10-11T08:12:26.154Z,99288.84
2022-10-11T08:14:55.070Z,99283.47
2022-10-11T08:17:21.834Z,99288.19
2022-10-11T08:19:49.081Z,99280.06
2022-10-11T08:22:15.809Z,99288.53
2022-10-11T08:24:42.601Z,99279.59
2022-10-11T08:27:09.376Z,99289.72
2022-10-11T08:29:36.163Z,99289.56
2022-10-11T08:32:03.033Z,99295.88
2022-10-11T08:34:29.787Z,99292.13
2022-10-11T08:36:56.525Z,99297.88
2022-10-11T08:39:23.299Z,99297.97
2022-10-11T08:41:55.968Z,99298.00
2022-10-11T08:44:58.139Z,99302.44
2022-10-11T08:47:28.485Z,99299.75
2022-10-11T08:49:56.282Z,99297.88
2022-10-11T08:52:27.414Z,99302.38
2022-10-11T08:55:03.364Z,99305.97
2022-10-11T08:57:34.554Z,99306.00
2022-10-11T09:00:07.347Z,99302.50
2022-10-11T09:03:26.301Z,99305.03
2022-10-11T09:05:55.633Z,99305.06
2022-10-11T09:08:22.599Z,99310.31
2022-10-11T09:10:52.071Z,99304.62
2022-10-11T09:13:43.611Z,99310.97
2022-10-11T09:16:28.432Z,99307.19
2022-10-11T09:19:13.496Z,99310.75
2022-10-11T09:22:06.431Z,99311.62
2022-10-11T09:24:54.992Z,99316.59
2022-10-11T09:27:50.201Z,99310.59
2022-10-11T09:30:19.688Z,99319.09
2022-10-11T09:33:32.490Z,99314.75
2022-10-11T09:35:59.726Z,99313.94
2022-10-11T09:38:56.479Z,99317.78
2022-10-11T09:41:38.447Z,99318.34
2022-10-11T09:44:07.421Z,99309.38
2022-10-11T09:46:40.242Z,99317.03
2022-10-11T09:49:14.541Z,99323.91
2022-10-11T09:51:46.611Z,99313.50
2022-10-11T09:54:13.503Z,99301.78
2022-10-11T09:56:44.005Z,99317.66
2022-10-11T09:59:28.357Z,99326.16
2022-10-11T10:02:20.198Z,99324.00
2022-10-11T10:05:00.936Z,99324.31
2022-10-11T10:07:30.333Z,99326.25
2022-10-11T10:09:58.376Z,99325.72
2022-10-11T10:12:28.683Z,99330.37
2022-10-11T10:15:17.888Z,99331.47
2022-10-11T10:17:52.421Z,99332.59
2022-10-11T10:20:30.162Z,99330.72
2022-10-11T10:22:59.016Z,99335.38
2022-10-11T10:25:33.063Z,99332.13
2022-10-11T10:28:02.352Z,99336.50
2022-10-11T10:30:35.232Z,99334.06
2022-10-11T10:33:07.493Z,99339.84
2022-10-11T10:35:42.264Z,99331.37
2022-10-11T10:38:21.739Z,99338.78
2022-10-11T10:40:53.859Z,99339.88
2022-10-11T10:43:42.281Z,99336.88
2022-10-11T10:46:18.356Z,99336.09
2022-10-11T10:52:05.586Z,99333.06
2022-10-11T10:55:08.897Z,99335.00
2022-10-11T10:58:18.461Z,99322.66
2022-10-11T11:00:56.131Z,99325.13
2022-10-11T11:03:46.030Z,99328.44
2022-10-11T11:06:21.934Z,99323.50
2022-10-11T11:09:06.931Z,99325.13
2022-10-11T11:11:51.192Z,99327.59
2022-10-11T11:14:29.797Z,99320.47
2022-10-11T11:17:06.280Z,99321.31
2022-10-11T11:19:51.710Z,99313.09
2022-10-11T11:22:39.637Z,99310.34
2022-10-11T11:25:31.973Z,99311.16
2022-10-11T11:28:25.735Z,99318.03
2022-10-11T11:30:54.955Z,99309.81
2022-10-11T11:33:47.806Z,99304.91
2022-10-11T11:36:23.789Z,99300.25
2022-10-11T11:39:22.386Z,99306.84
2022-10-11T11:42:01.272Z,99304.38
2022-10-11T11:44:32.858Z,99299.19
2022-10-11T11:47:02.725Z,99302.19
2022-10-11T11:52:39.509Z,99293.41
2022-10-11T11:55:17.618Z,99298.06
2022-10-11T11:57:52.968Z,99290.94
2022-10-11T12:00:27.656Z,99286.56
2022-10-11T12:03:03.817Z,99292.31
2022-10-11T12:05:36.143Z,99287.91
2022-10-11T12:08:25.737Z,99296.41
2022-10-11T12:11:01.165Z,99295.84
2022-10-11T12:13:37.143Z,99281.59
2022-10-11T12:16:03.845Z,99278.56
2022-10-11T12:18:31.612Z,99280.50
2022-10-11T12:21:20.072Z,99281.56
2022-10-11T12:23:49.751Z,99284.59
2022-10-11T12:26:28.588Z,99285.13
2022-10-11T12:29:28.187Z,99279.91
2022-10-11T12:31:58.714Z,99282.09
2022-10-11T12:34:37.073Z,99268.91
2022-10-11T12:37:19.620Z,99263.41
2022-10-11T12:39:57.369Z,99271.38
2022-10-11T12:42:33.704Z,99270.81
2022-10-11T12:45:13.094Z,99260.09
2022-10-11T12:48:00.925Z,99259.81
2022-10-11T12:50:43.628Z,99255.69
2022-10-11T12:53:30.311Z,99257.03
2022-10-11T12:56:08.324Z,99265.56
2022-10-11T12:58:41.419Z,99257.03
2022-10-11T13:01:22.200Z,99256.50
2022-10-11T13:03:53.075Z,99255.41
2022-10-11T13:06:21.749Z,99255.94
2022-10-11T13:08:54.638Z,99250.16
2022-10-11T13:11:25.493Z,99252.06
2022-10-11T13:14:05.449Z,99251.78
2022-10-11T13:17:01.278Z,99260.84
2022-10-11T13:19:28.670Z,99261.37
2022-10-11T13:21:58.971Z,99264.66
2022-10-11T13:24:27.588Z,99254.50
2022-10-11T13:26:56.640Z,99260.53
2022-10-11T13:29:30.796Z,99244.88
2022-10-11T13:31:57.702Z,99254.75
2022-10-11T13:34:24.656Z,99252.81
2022-10-11T13:36:56.717Z,99255.28
2022-10-11T13:39:31.248Z,99248.97
2022-10-11T13:41:59.724Z,99259.66
2022-10-11T13:44:27.324Z,99261.34
2022-10-11T13:46:54.655Z,99269.81
2022-10-11T13:49:26.383Z,99258.84
2022-10-11T13:52:01.655Z,99256.91
2022-10-11T13:55:00.878Z,99260.47
2022-10-11T13:57:30.632Z,99258.56
2022-10-11T13:59:57.445Z,99259.38
2022-10-11T14:02:25.964Z,99256.63
2022-10-11T14:04:53.588Z,99253.87
2022-10-11T14:07:36.180Z,99256.34
2022-10-11T14:10:07.057Z,99260.72
2022-10-11T14:12:43.319Z,99253.31
2022-10-11T14:15:38.388Z,99252.19
2022-10-11T14:18:33.573Z,99259.34
2022-10-11T14:21:20.139Z,99254.94
2022-10-11T14:23:47.690Z,99254.94
2022-10-11T14:26:18.690Z,99263.19
2022-10-11T14:28:49.398Z,99254.94
2022-10-11T14:31:16.382Z,99256.59
2022-10-11T14:33:43.274Z,99253.84
2022-10-11T14:36:10.022Z,99258.53
2022-10-11T14:38:36.773Z,99264.84
2022-10-11T14:41:03.883Z,99264.31
2022-10-11T14:43:30.696Z,99264.31
2022-10-11T14:45:57.644Z,99276.09
2022-10-11T14:48:50.442Z,99271.72
2022-10-11T14:51:13.019Z,99276.37
2022-10-11T14:53:46.142Z,99273.66
2022-10-11T14:56:18.929Z,99271.72
2022-10-11T14:58:48.055Z,99270.06
2022-10-11T15:01:16.854Z,99267.63
2022-10-11T15:03:43.860Z,99269.53
2022-10-11T15:06:20.863Z,99268.72
2022-10-11T15:08:47.809Z,99270.09
2022-10-11T15:11:17.513Z,99276.13
2022-10-11T15:13:45.185Z,99270.94
2022-10-11T15:16:17.347Z,99268.47
2022-10-11T15:18:44.233Z,99274.78
2022-10-11T15:21:14.457Z,99274.78
2022-10-11T15:23:41.385Z,99284.66
2022-10-11T15:26:13.488Z,99281.09
2022-10-11T15:28:40.298Z,99283.03
2022-10-11T15:31:08.177Z,99284.13
2022-10-11T15:33:35.182Z,99282.44
2022-10-11T15:36:01.894Z,99290.16
2022-10-11T15:38:28.777Z,99286.88
2022-10-11T15:40:55.506Z,99286.34
2022-10-11T15:43:25.022Z,99291.28
2022-10-11T15:45:52.229Z,99291.84
2022-10-11T15:48:20.533Z,99292.41
2022-10-11T15:50:47.468Z,99293.25
2022-10-11T15:53:16.928Z,99295.75
2022-10-11T15:55:50.058Z,99296.28
2022-10-11T15:58:32.268Z,99293.56
2022-10-11T16:01:05.661Z,99301.50
2022-10-11T16:03:33.873Z,99297.97
2022-10-11T16:06:05.250Z,99298.81
2022-10-11T16:08:33.684Z,99305.09
2022-10-11T16:11:01.020Z,99310.06
2022-10-11T16:13:27.790Z,99309.78
2022-10-11T16:15:54.768Z,99307.06
2022-10-11T16:18:22.572Z,99311.75
2022-10-11T16:20:51.958Z,99314.50
2022-10-11T16:23:21.156Z,99317.25
2022-10-11T16:26:06.345Z,99317.50
2022-10-11T16:28:33.905Z,99314.78
2022-10-11T16:31:05.370Z,99310.13
2022-10-11T16:33:32.370Z,99319.19
2022-10-11T16:36:19.057Z,99324.66
2022-10-11T16:38:45.943Z,99321.91
2022-10-11T16:41:12.664Z,99322.19
2022-10-11T16:43:39.403Z,99324.13
2022-10-11T16:46:06.349Z,99324.09
2022-10-11T16:48:33.353Z,99332.31
2022-10-11T16:51:09.589Z,99326.31
2022-10-11T16:53:36.463Z,99331.19
2022-10-11T16:56:08.339Z,99325.69
2022-10-11T16:58:36.488Z,99340.22
2022-10-11T17:01:08.866Z,99338.00
2022-10-11T17:03:35.833Z,99343.22
2022-10-11T17:06:03.631Z,99347.03
2022-10-11T17:08:31.032Z,99347.81
2022-10-11T17:10:58.311Z,99350.28
2022-10-11T17:13:25.261Z,99355.75
2022-10-11T17:15:52.554Z,99359.84
2022-10-11T17:18:19.328Z,99358.19
2022-10-11T17:21:06.704Z,99354.03
2022-10-11T17:23:35.340Z,99361.13
2022-10-11T17:26:10.024Z,99367.41
2022-10-11T17:28:38.957Z,99366.31
2022-10-11T17:31:07.661Z,99363.56
2022-10-11T17:33:35.032Z,99364.31
2022-10-11T17:36:02.600Z,99365.94
2022-10-11T17:38:29.426Z,99363.19
2022-10-11T17:41:05.070Z,99368.09
2022-10-11T17:43:32.424Z,99373.00
2022-10-11T17:46:01.429Z,99371.25
2022-10-11T17:48:28.669Z,99370.41
2022-10-11T17:50:55.645Z,99369.31
2022-10-11T17:53:22.668Z,99369.84
2022-10-11T17:55:50.752Z,99365.97
2022-10-11T17:58:18.739Z,99374.44
2022-10-11T18:00:46.009Z,99367.84
2022-10-11T18:03:13.276Z,99368.63
2022-10-11T18:05:41.319Z,99369.16
2022-10-11T18:08:08.747Z,99377.06
2022-10-11T18:10:38.590Z,99381.97
2022-10-11T18:13:06.871Z,99378.13
2022-10-11T18:15:34.368Z,99387.66
2022-10-11T18:18:01.825Z,99386.50
2022-10-11T18:20:28.932Z,99387.84
2022-10-11T18:22:55.932Z,99380.44
2022-10-11T18:25:22.812Z,99385.88
2022-10-11T18:27:51.447Z,99383.97
2022-10-11T18:30:19.040Z,99385.31
2022-10-11T18:32:46.273Z,99387.75
2022-10-11T18:35:13.175Z,99388.75
2022-10-11T18:37:40.444Z,99390.09
2022-10-11T18:40:07.706Z,99388.16
2022-10-11T18:42:35.169Z,99390.03
2022-10-11T18:45:03.922Z,99383.16
2022-10-11T18:47:31.380Z,99387.53
2022-10-11T18:49:58.860Z,99385.34
2022-10-11T18:52:26.374Z,99389.38
2022-10-11T18:54:53.921Z,99381.44
2022-10-11T18:57:21.076Z,99388.25
2022-10-11T18:59:48.231Z,99388.19
2022-10-11T19:02:15.438Z,99384.94
2022-10-11T19:04:42.816Z,99386.81
2022-10-11T19:07:10.197Z,99394.69
2022-10-11T19:09:38.135Z,99386.19
2022-10-11T19:12:05.289Z,99393.81
2022-10-11T19:14:33.751Z,99388.81
2022-10-11T19:17:01.220Z,99393.97
2022-10-11T19:19:29.544Z,99397.53
2022-10-11T19:21:57.435Z,99391.75
2022-10-11T19:24:26.977Z,99405.66
2022-10-11T19:26:58.398Z,99404.00
2022-10-11T19:29:29.296Z,99398.25
2022-10-11T19:32:02.439Z,99398.25
2022-10-11T19:34:31.642Z,99404.22
2022-10-11T19:37:01.164Z,99403.97
2022-10-11T19:39:29.936Z,99409.69
2022-10-11T19:41:57.151Z,99408.53
2022-10-11T19:44:24.246Z,99401.19
2022-10-11T19:46:52.747Z,99403.34
2022-10-11T19:49:25.323Z,99408.81
2022-10-11T19:51:53.839Z,99411.53
2022-10-11T19:54:21.080Z,99414.25
2022-10-11T19:56:48.468Z,99409.06
2022-10-11T19:59:15.744Z,99407.72
2022-10-11T20:01:46.624Z,99413.44
2022-10-11T20:04:33.144Z,99417.00
2022-10-11T20:07:01.696Z,99409.28
2022-10-11T20:09:30.196Z,99410.34
2022-10-11T20:11:57.779Z,99416.31
2022-10-11T20:14:24.936Z,99418.22
2022-10-11T20:16:52.242Z,99421.78
2022-10-11T20:19:19.135Z,99413.84
2022-10-11T20:21:46.214Z,99416.59
2022-10-11T20:24:13.274Z,99417.66
2022-10-11T20:26:40.274Z,99414.63
2022-10-11T20:29:07.119Z,99407.78
2022-10-11T20:31:38.078Z,99413.22
2022-10-11T20:34:07.510Z,99422.75
2022-10-11T20:36:36.091Z,99423.81
2022-10-11T20:39:05.098Z,99422.69
2022-10-11T20:41:37.122Z,99414.75
2022-10-11T20:44:04.623Z,99422.34
2022-10-11T20:46:37.816Z,99413.59
2022-10-11T20:49:07.866Z,99425.81
2022-10-11T20:51:37.270Z,99421.19
2022-10-11T20:54:04.875Z,99418.72
2022-10-11T20:56:32.147Z,99420.31
2022-10-11T20:58:59.297Z,99418.66
2022-10-11T21:01:29.813Z,99418.91
2022-10-11T21:04:01.338Z,99418.59
2022-10-11T21:06:29.641Z,99417.00
2022-10-11T21:08:56.618Z,99431.41
2022-10-11T21:11:31.476Z,99420.75
2022-10-11T21:14:00.890Z,99426.28
2022-10-11T21:16:28.774Z,99429.00
2022-10-11T21:18:57.860Z,99429.81
2022-10-11T21:21:25.531Z,99421.63
2022-10-11T21:23:56.947Z,99427.91
2022-10-11T21:26:23.851Z,99424.13
2022-10-11T21:28:50.725Z,99429.81
2022-10-11T21:31:19.913Z,99429.81
2022-10-11T21:33:47.259Z,99431.97
2022-10-11T21:36:19.938Z,99425.94
2022-10-11T21:38:46.860Z,99423.47
2022-10-11T21:41:16.172Z,99431.09
2022-10-11T21:43:42.967Z,99425.62
2022-10-11T21:46:20.975Z,99424.19
2022-10-11T21:48:50.045Z,99420.06
2022-10-11T21:51:26.286Z,99422.81
2022-10-11T21:53:55.081Z,99420.59
2022-10-11T21:56:21.945Z,99408.28
2022-10-11T21:58:50.314Z,99415.63
2022-10-11T22:01:18.325Z,99407.72
2022-10-11T22:03:45.636Z,99415.31
2022-10-11T22:06:12.925Z,99412.25
2022-10-11T22:08:40.423Z,99411.69
2022-10-11T22:11:07.899Z,99413.59
2022-10-11T22:13:35.724Z,99415.50
2022-10-11T22:16:03.844Z,99406.75
2022-10-11T22:18:33.505Z,99407.81
2022-10-11T22:21:18.983Z,99410.28
2022-10-11T22:23:48.461Z,99404.03
2022-10-11T22:26:20.833Z,99408.03
2022-10-11T22:28:47.841Z,99410.53
2022-10-11T22:31:15.977Z,99403.44
2022-10-11T22:33:42.949Z,99402.59
2022-10-11T22:36:16.579Z,99400.94
2022-10-11T22:38:43.860Z,99408.03
2022-10-11T22:41:11.147Z,99402.59
2022-10-11T22:43:38.228Z,99408.28
2022-10-11T22:46:06.106Z,99409.38
2022-10-11T22:48:32.932Z,99406.87
2022-10-11T22:51:00.131Z,99408.53
2022-10-11T22:53:27.044Z,99411.00
2022-10-11T22:55:53.897Z,99405.81
2022-10-11T22:58:20.670Z,99404.41
2022-10-11T23:00:47.446Z,99409.88
2022-10-11T23:03:15.890Z,99407.13
2022-10-11T23:05:42.805Z,99396.75
2022-10-11T23:08:10.046Z,99404.91
2022-10-11T23:10:40.290Z,99399.47
2022-10-11T23:13:07.185Z,99405.75
2022-10-11T23:15:33.987Z,99404.66
2022-10-11T23:18:00.701Z,99407.13
2022-10-11T23:20:27.504Z,99409.88
2022-10-11T23:22:54.224Z,99406.31
2022-10-11T23:25:21.018Z,99411.78
2022-10-11T23:27:47.801Z,99412.03
2022-10-11T23:30:14.668Z,99406.81
2022-10-11T23:32:41.524Z,99411.69
2022-10-11T23:35:08.456Z,99414.41
2022-10-11T23:37:35.474Z,99408.97
2022-10-11T23:40:02.801Z,99416.91
2022-10-11T23:42:29.546Z,99414.66
2022-10-11T23:44:56.297Z,99418.47
2022-10-11T23:47:23.067Z,99414.09
2022-10-11T23:49:49.783Z,99416.00
2022-10-11T23:52:16.504Z,99414.91
2022-10-11T23:54:43.282Z,99409.72
2022-10-11T23:57:09.997Z,99419.56
2022-10-11T23:59:36.741Z,99420.06
